createdAt,value
2022-09-15T00:00:01.710Z,1003.624
2022-09-15T00:07:02.129Z,1003.624
2022-09-15T00:14:02.090Z,1003.646
2022-09-15T00:21:02.241Z,1003.646
2022-09-15T00:28:01.612Z,1003.524
2022-09-15T00:35:01.638Z,1003.524
2022-09-15T00:42:01.708Z,1003.379
2022-09-15T00:49:02.070Z,1003.379
2022-09-15T00:56:02.203Z,1003.714
2022-09-15T01:00:01.855Z,1003.714
2022-09-15T01:07:01.510Z,1003.716
2022-09-15T01:14:01.656Z,1003.716
2022-09-15T01:21:02.102Z,1003.49
2022-09-15T01:28:02.120Z,1003.49
2022-09-15T01:35:01.983Z,1003.494
2022-09-15T01:42:01.930Z,1003.592
2022-09-15T01:49:01.979Z,1003.592
2022-09-15T01:56:02.123Z,1003.555
2022-09-15T02:00:01.750Z,1003.555
2022-09-15T02:07:02.112Z,1003.664
2022-09-15T02:14:01.658Z,1003.664
2022-09-15T02:21:01.575Z,1003.725
2022-09-15T02:28:02.234Z,1003.725
2022-09-15T02:35:01.632Z,1003.73
2022-09-15T02:42:02.251Z,1003.73
2022-09-15T02:49:02.296Z,1003.659
2022-09-15T02:56:01.476Z,1003.659
2022-09-15T03:00:02.185Z,1003.775
2022-09-15T03:07:01.836Z,1003.775
2022-09-15T03:14:01.881Z,1003.713
2022-09-15T03:21:01.576Z,1003.713
2022-09-15T03:28:02.114Z,1003.796
2022-09-15T03:35:02.101Z,1003.796
2022-09-15T03:42:01.393Z,1003.866
2022-09-15T03:49:02.051Z,1003.866
2022-09-15T03:56:02.024Z,1003.816
2022-09-15T04:00:01.629Z,1003.816
2022-09-15T04:07:01.875Z,1003.963
2022-09-15T04:14:01.989Z,1003.963
2022-09-15T04:21:02.180Z,1003.977
2022-09-15T04:28:01.602Z,1003.977
2022-09-15T04:35:02.325Z,1003.914
2022-09-15T04:42:01.360Z,1003.873
2022-09-15T04:49:02.054Z,1003.873
2022-09-15T04:56:02.259Z,1003.861
2022-09-15T05:00:01.835Z,1003.861
2022-09-15T05:07:01.617Z,1003.911
2022-09-15T05:14:01.815Z,1003.911
2022-09-15T05:21:01.935Z,1003.864
2022-09-15T05:28:02.157Z,1003.864
2022-09-15T05:35:01.843Z,1004.131
2022-09-15T05:42:01.368Z,1004.131
2022-09-15T05:49:01.608Z,1004.036
2022-09-15T05:56:01.612Z,1004.036
2022-09-15T06:00:02.249Z,1004.251
2022-09-15T06:07:01.808Z,1004.251
2022-09-15T06:14:02.108Z,1004.174
2022-09-15T06:21:01.834Z,1004.174
2022-09-15T06:28:02.189Z,1004.317
2022-09-15T06:35:01.598Z,1004.317
2022-09-15T06:42:03.211Z,1004.419
2022-09-15T06:49:01.933Z,1004.419
2022-09-15T06:56:01.809Z,1004.449
2022-09-15T07:00:02.416Z,1004.449
2022-09-15T07:07:02.275Z,1004.64
2022-09-15T07:14:01.483Z,1004.64
2022-09-15T07:21:01.808Z,1004.661
2022-09-15T07:28:01.836Z,1004.661
2022-09-15T07:35:02.137Z,1004.515
2022-09-15T07:42:02.268Z,1004.969
2022-09-15T07:49:01.578Z,1004.969
2022-09-15T07:56:01.392Z,1005.239
2022-09-15T08:00:01.988Z,1005.239
2022-09-15T08:07:01.650Z,1005.27
2022-09-15T08:14:01.846Z,1005.27
2022-09-15T08:21:02.038Z,1005.344
2022-09-15T08:28:01.863Z,1005.344
2022-09-15T08:35:02.323Z,1005.565
2022-09-15T08:42:02.057Z,1005.565
2022-09-15T08:49:03.130Z,1005.505
2022-09-15T08:56:02.018Z,1005.505
2022-09-15T09:00:01.669Z,1005.722
2022-09-15T09:07:01.335Z,1005.722
2022-09-15T09:14:02.269Z,1005.763
2022-09-15T09:21:02.181Z,1005.763
2022-09-15T09:28:01.785Z,1005.692
2022-09-15T09:35:01.581Z,1005.692
2022-09-15T09:42:01.690Z,1005.77
2022-09-15T09:49:02.286Z,1005.77
2022-09-15T09:56:01.497Z,1005.81
2022-09-15T10:00:02.034Z,1005.81
2022-09-15T10:07:01.857Z,1005.831
2022-09-15T10:14:01.967Z,1005.831
2022-09-15T10:21:02.080Z,1005.715
2022-09-15T10:28:02.007Z,1005.715
2022-09-15T10:35:01.920Z,1005.695
2022-09-15T10:42:02.185Z,1005.683
2022-09-15T10:49:01.448Z,1005.683
2022-09-15T10:56:02.061Z,1005.661
2022-09-15T11:00:01.644Z,1005.661
2022-09-15T11:07:01.533Z,1005.411
2022-09-15T11:14:01.809Z,1005.411
2022-09-15T11:21:02.261Z,1005.768
2022-09-15T11:28:01.361Z,1005.768
2022-09-15T11:35:01.996Z,1005.734
2022-09-15T11:42:02.278Z,1005.734
2022-09-15T11:49:01.419Z,1005.779
2022-09-15T11:56:01.774Z,1005.779
2022-09-15T12:00:02.419Z,1005.804
2022-09-15T12:07:02.019Z,1005.804
2022-09-15T12:14:01.415Z,1005.811
2022-09-15T12:21:01.779Z,1005.811
2022-09-15T12:28:02.269Z,1005.812
2022-09-15T12:35:02.304Z,1005.812
2022-09-15T12:42:01.944Z,1005.982
2022-09-15T12:49:01.703Z,1005.982
2022-09-15T12:56:01.629Z,1006.133
2022-09-15T13:00:02.294Z,1006.133
2022-09-15T13:07:01.660Z,1006.261
2022-09-15T13:14:02.299Z,1006.261
2022-09-15T13:21:01.394Z,1006.319
2022-09-15T13:28:01.842Z,1006.319
2022-09-15T13:35:09.454Z,1006.248
2022-09-15T13:42:01.731Z,1006.178
2022-09-15T13:49:02.151Z,1006.178
2022-09-15T13:56:02.245Z,1005.929
2022-09-15T14:00:01.874Z,1005.929
2022-09-15T14:07:02.425Z,1005.865
2022-09-15T14:14:01.526Z,1005.865
2022-09-15T14:21:02.061Z,1005.973
2022-09-15T14:28:01.953Z,1005.973
2022-09-15T14:35:02.544Z,1005.811
2022-09-15T14:42:01.841Z,1005.811
2022-09-15T14:49:01.573Z,1005.958
2022-09-15T14:56:07.641Z,1005.958
2022-09-15T15:00:01.678Z,1005.927
2022-09-15T15:07:01.982Z,1005.927
2022-09-15T15:14:02.225Z,1005.974
2022-09-15T15:21:02.087Z,1005.974
2022-09-15T15:28:01.485Z,1005.843
2022-09-15T15:35:01.979Z,1005.843
2022-09-15T15:42:01.501Z,1005.798
2022-09-15T15:49:02.017Z,1005.798
2022-09-15T15:56:02.347Z,1005.898
2022-09-15T16:00:01.913Z,1005.898
2022-09-15T16:07:01.585Z,1005.845
2022-09-15T16:14:01.985Z,1005.845
2022-09-15T16:21:02.233Z,1005.961
2022-09-15T16:28:02.192Z,1005.961
2022-09-15T16:35:02.795Z,1005.935
2022-09-15T16:42:01.626Z,1005.786
2022-09-15T16:49:01.712Z,1005.786
2022-09-15T16:56:01.873Z,1005.959
2022-09-15T17:00:02.459Z,1005.959
2022-09-15T17:07:01.494Z,1006.07
2022-09-15T17:14:02.119Z,1006.07
2022-09-15T17:21:01.335Z,1006.271
2022-09-15T17:28:01.571Z,1006.271
2022-09-15T17:35:01.707Z,1006.198
2022-09-15T17:49:01.546Z,1006.294
2022-09-15T17:56:01.754Z,1006.294
2022-09-15T18:00:02.300Z,1006.326
2022-09-15T18:07:02.169Z,1006.326
2022-09-15T18:14:01.443Z,1006.336
2022-09-15T18:21:02.297Z,1006.336
2022-09-15T18:28:01.960Z,1006.444
2022-09-15T18:35:01.502Z,1006.444
2022-09-15T18:42:01.899Z,1006.576
2022-09-15T18:49:01.689Z,1006.576
2022-09-15T18:56:01.605Z,1006.47
2022-09-15T19:00:02.338Z,1006.47
2022-09-15T19:07:01.516Z,1006.631
2022-09-15T19:14:01.755Z,1006.631
2022-09-15T19:21:02.309Z,1006.656
2022-09-15T19:28:02.266Z,1006.656
2022-09-15T19:35:02.371Z,1006.656
2022-09-15T19:42:01.526Z,1006.791
2022-09-15T19:49:01.609Z,1006.791
2022-09-15T19:56:02.093Z,1007.009
2022-09-15T20:00:01.703Z,1007.009
2022-09-15T20:07:01.448Z,1007.098
2022-09-15T20:14:01.375Z,1007.098
2022-09-15T20:21:01.687Z,1006.961
2022-09-15T20:28:02.053Z,1006.961
2022-09-15T20:35:01.528Z,1007.176
2022-09-15T20:42:01.713Z,1007.176
2022-09-15T20:49:02.237Z,1007.43
2022-09-15T20:56:01.487Z,1007.43
2022-09-15T21:00:02.180Z,1007.511
2022-09-15T21:07:01.457Z,1007.511
2022-09-15T21:14:01.980Z,1007.408
2022-09-15T21:21:01.389Z,1007.408
2022-09-15T21:28:02.021Z,1007.543
2022-09-15T21:35:02.323Z,1007.543
2022-09-15T21:42:01.592Z,1007.668
2022-09-15T21:49:02.302Z,1007.668
2022-09-15T21:56:02.283Z,1007.59
2022-09-15T22:00:01.793Z,1007.59
2022-09-15T22:07:01.888Z,1007.589
2022-09-15T22:14:01.364Z,1007.589
2022-09-15T22:21:02.102Z,1007.469
2022-09-15T22:28:01.400Z,1007.469
2022-09-15T22:35:02.616Z,1007.611
2022-09-15T22:42:01.954Z,1007.787
2022-09-15T22:49:01.375Z,1007.787
2022-09-15T22:56:01.922Z,1007.53
2022-09-15T23:00:02.545Z,1007.53
2022-09-15T23:07:01.836Z,1007.602
2022-09-15T23:14:01.946Z,1007.602
2022-09-15T23:21:01.697Z,1007.671
2022-09-15T23:28:01.942Z,1007.671
2022-09-15T23:35:01.865Z,1007.632
2022-09-15T23:42:01.882Z,1007.632
2022-09-15T23:49:02.221Z,1007.566
2022-09-15T23:56:01.966Z,1007.566
